Saint-Moise, Canada
Current Conditions -  °F | °C
As of 6:00 AM on Friday 31 Oct 2014 (Local Time) from CYYY Reporting Station
Broken Clouds Broken Clouds  
Wind Chill: 32°   Ceiling: 22000
Heat Index: 32°   Visibility: 30mi
Dew Point: 28°   Wind: 0mph
Humidity: 87%   Direction: NA
Pressure: 30"   Gusts: NA
Location:  48.53°N, 67.85°W
Report Text: CYYY 311000Z 00000KT 30SM FEW040 BKN220 00/M02 A3000 RMK SC2CI4 SLP163
Loading
Personal Weather Stations






























Interactive Weather Map
Tropical Storm Tracking
New forecast layout! Learn more

10-Day Weather Forecast

Advertisements
Track Severe Weather on mobile